Time,TemperatureF,DewpointF,PressureIn,WindDirection,WindDirectionDegrees,WindSpeedMPH,WindSpeedGustMPH,Humidity,HourlyPrecipIn,Conditions,Clouds,dailyrainin,SolarRadiationWatts/m^2,SoftwareType,DateUTC
2013-01-09 00:02:00,50.0,11.0,30.01,WNW,283,13.0,18.0,20,-99.99,,,-99.99,0.000000,,2013-01-09 07:02:00,
2013-01-09 00:12:00,51.0,11.0,30.01,WNW,283,12.0,18.0,19,-99.99,,,-99.99,0.000000,,2013-01-09 07:12:00,
2013-01-09 00:22:00,51.0,11.0,30.01,WNW,283,12.0,18.0,19,-99.99,,,-99.99,0.000000,,2013-01-09 07:22:00,
2013-01-09 00:32:00,52.0,9.0,30.01,WNW,293,10.0,16.0,17,-99.99,,,-99.99,0.000000,,2013-01-09 07:32:00,
2013-01-09 00:42:00,51.0,9.0,30.02,WNW,294,9.0,15.0,17,-99.99,,,-99.99,0.000000,,2013-01-09 07:42:00,
2013-01-09 00:52:00,50.0,9.0,30.04,West,271,5.0,11.0,18,-99.99,,,-99.99,0.000000,,2013-01-09 07:52:00,
2013-01-09 01:02:00,50.0,9.0,30.04,West,271,5.0,11.0,18,-99.99,,,-99.99,0.000000,,2013-01-09 08:02:00,
2013-01-09 01:12:00,48.0,10.0,30.06,SE,126,7.0,15.0,21,-99.99,,,-99.99,0.000000,,2013-01-09 08:12:00,
2013-01-09 01:22:00,48.0,10.0,30.06,SE,126,7.0,15.0,21,-99.99,,,-99.99,0.000000,,2013-01-09 08:22:00,
2013-01-09 01:32:00,43.0,14.0,30.08,SSE,153,14.0,23.0,30,-99.99,,,-99.99,0.000000,,2013-01-09 08:32:00,
2013-01-09 01:42:00,43.0,13.0,30.08,SSE,157,9.0,18.0,28,-99.99,,,-99.99,0.000000,,2013-01-09 08:42:00,
2013-01-09 01:53:00,43.0,13.0,30.10,SE,146,8.0,12.0,29,-99.99,,,-99.99,0.000000,,2013-01-09 08:53:00,
2013-01-09 02:02:00,43.0,13.0,30.10,SE,146,8.0,12.0,29,-99.99,,,-99.99,0.000000,,2013-01-09 09:02:00,
2013-01-09 02:12:00,42.0,13.0,30.11,SE,134,6.0,11.0,30,-99.99,,,-99.99,0.000000,,2013-01-09 09:12:00,
2013-01-09 02:22:00,42.0,13.0,30.11,SE,134,6.0,11.0,30,-99.99,,,-99.99,0.000000,,2013-01-09 09:22:00,
2013-01-09 02:32:00,41.0,13.0,30.11,South,171,2.0,5.0,30,-99.99,,,-99.99,0.000000,,2013-01-09 09:32:00,
2013-01-09 02:42:00,40.0,15.0,30.12,WNW,291,5.0,9.0,35,-99.99,,,-99.99,0.000000,,2013-01-09 09:42:00,
2013-01-09 02:53:00,35.0,17.0,30.12,WNW,288,6.0,9.0,46,-99.99,,,-99.99,0.000000,,2013-01-09 09:53:00,
2013-01-09 03:02:00,35.0,17.0,30.12,WNW,288,6.0,9.0,46,-99.99,,,-99.99,0.000000,,2013-01-09 10:02:00,
2013-01-09 03:12:00,34.0,18.0,30.11,WNW,295,7.0,9.0,50,-99.99,,,-99.99,0.000000,,2013-01-09 10:12:00,
2013-01-09 03:22:00,34.0,18.0,30.11,WNW,295,7.0,9.0,50,-99.99,,,-99.99,0.000000,,2013-01-09 10:22:00,
2013-01-09 03:32:00,34.0,18.0,30.12,WNW,292,6.0,9.0,53,-99.99,,,-99.99,0.000000,,2013-01-09 10:32:00,
2013-01-09 03:42:00,35.0,18.0,30.12,WSW,244,4.0,8.0,49,-99.99,,,-99.99,0.000000,,2013-01-09 10:42:00,
2013-01-09 03:52:00,35.0,18.0,30.12,WSW,244,4.0,8.0,49,-99.99,,,-99.99,0.000000,,2013-01-09 10:52:00,
2013-01-09 04:02:00,37.0,16.0,30.13,NNW,343,3.0,7.0,42,-99.99,,,-99.99,0.000000,,2013-01-09 11:02:00,
2013-01-09 04:12:00,42.0,14.0,30.13,West,276,8.0,15.0,30,-99.99,,,-99.99,0.000000,,2013-01-09 11:12:00,
2013-01-09 04:22:00,42.0,14.0,30.13,West,276,8.0,15.0,30,-99.99,,,-99.99,0.000000,,2013-01-09 11:22:00,
2013-01-09 04:32:00,44.0,13.0,30.12,West,281,11.0,16.0,27,-99.99,,,-99.99,0.000000,,2013-01-09 11:32:00,
2013-01-09 04:42:00,45.0,13.0,30.12,WNW,290,12.0,16.0,27,-99.99,,,-99.99,0.000000,,2013-01-09 11:42:00,
2013-01-09 04:53:00,45.0,13.0,30.12,WNW,290,12.0,16.0,27,-99.99,,,-99.99,0.000000,,2013-01-09 11:53:00,
2013-01-09 05:03:00,44.0,13.0,30.13,WNW,286,9.0,13.0,28,-99.99,,,-99.99,0.000000,,2013-01-09 12:03:00,
2013-01-09 05:12:00,42.0,13.0,30.14,WNW,284,7.0,11.0,30,-99.99,,,-99.99,0.000000,,2013-01-09 12:12:00,
2013-01-09 05:23:00,42.0,13.0,30.14,WNW,284,7.0,11.0,30,-99.99,,,-99.99,0.000000,,2013-01-09 12:23:00,
2013-01-09 05:33:00,41.0,14.0,30.14,WNW,290,8.0,11.0,32,-99.99,,,-99.99,0.000000,,2013-01-09 12:33:00,
2013-01-09 05:43:00,41.0,14.0,30.14,WNW,290,8.0,11.0,32,-99.99,,,-99.99,0.000000,,2013-01-09 12:43:00,
2013-01-09 05:53:00,41.0,14.0,30.14,WNW,290,8.0,11.0,32,-99.99,,,-99.99,0.000000,,2013-01-09 12:53:00,
2013-01-09 06:02:00,41.0,14.0,30.16,WNW,289,8.0,11.0,33,-99.99,,,-99.99,0.000000,,2013-01-09 13:02:00,
2013-01-09 06:12:00,41.0,14.0,30.16,WNW,289,8.0,11.0,33,-99.99,,,-99.99,0.000000,,2013-01-09 13:12:00,
2013-01-09 06:23:00,41.0,14.0,30.16,WNW,289,8.0,11.0,33,-99.99,,,-99.99,0.000000,,2013-01-09 13:23:00,
2013-01-09 06:33:00,41.0,14.0,30.19,WSW,250,3.0,9.0,32,-99.99,,,-99.99,0.000000,,2013-01-09 13:33:00,
2013-01-09 06:43:00,39.0,15.0,30.20,WNW,286,4.0,8.0,38,-99.99,,,-99.99,0.000000,,2013-01-09 13:43:00,
2013-01-09 06:53:00,39.0,15.0,30.20,WNW,286,4.0,8.0,38,-99.99,,,-99.99,0.000000,,2013-01-09 13:53:00,
2013-01-09 07:03:00,43.0,13.0,30.22,SSE,151,3.0,6.0,29,-99.99,,,-99.99,0.000000,,2013-01-09 14:03:00,
2013-01-09 07:12:00,43.0,13.0,30.22,SSE,151,3.0,6.0,29,-99.99,,,-99.99,0.000000,,2013-01-09 14:12:00,
2013-01-09 07:22:00,43.0,13.0,30.22,SSE,151,3.0,6.0,29,-99.99,,,-99.99,0.000000,,2013-01-09 14:22:00,
2013-01-09 07:33:00,44.0,13.0,30.23,SSE,151,5.0,8.0,28,-99.99,,,-99.99,0.000000,,2013-01-09 14:33:00,
2013-01-09 07:43:00,42.0,14.0,30.24,SSE,149,5.0,6.0,31,-99.99,,,-99.99,3.490000,,2013-01-09 14:43:00,
2013-01-09 07:53:00,42.0,14.0,30.24,SSE,149,5.0,6.0,31,-99.99,,,-99.99,3.490000,,2013-01-09 14:53:00,
2013-01-09 08:03:00,42.0,14.0,30.24,SSE,149,5.0,6.0,31,-99.99,,,-99.99,3.490000,,2013-01-09 15:03:00,
2013-01-09 08:12:00,42.0,15.0,30.25,SSE,158,3.0,5.0,32,-99.99,,,-99.99,19.530001,,2013-01-09 15:12:00,
2013-01-09 08:23:00,42.0,15.0,30.25,SSE,158,3.0,5.0,32,-99.99,,,-99.99,19.530001,,2013-01-09 15:23:00,
2013-01-09 08:33:00,42.0,16.0,30.26,West,266,3.0,10.0,34,-99.99,,,-99.99,96.230003,,2013-01-09 15:33:00,
2013-01-09 08:42:00,47.0,16.0,30.26,SW,223,2.0,4.0,29,-99.99,,,-99.99,195.949997,,2013-01-09 15:42:00,
2013-01-09 08:53:00,47.0,16.0,30.26,SW,223,2.0,4.0,29,-99.99,,,-99.99,195.949997,,2013-01-09 15:53:00,
2013-01-09 09:03:00,47.0,18.0,30.26,NNW,335,3.0,6.0,30,-99.99,,,-99.99,245.460007,,2013-01-09 16:03:00,
2013-01-09 09:12:00,48.0,18.0,30.27,NW,321,3.0,5.0,29,-99.99,,,-99.99,269.869995,,2013-01-09 16:12:00,
2013-01-09 09:23:00,48.0,18.0,30.27,NW,321,3.0,5.0,29,-99.99,,,-99.99,269.869995,,2013-01-09 16:23:00,
2013-01-09 09:33:00,49.0,17.0,30.27,NNW,345,2.0,4.0,28,-99.99,,,-99.99,306.829987,,2013-01-09 16:33:00,
2013-01-09 09:43:00,49.0,18.0,30.26,East,90,2.0,3.0,28,-99.99,,,-99.99,348.670013,,2013-01-09 16:43:00,
2013-01-09 09:53:00,49.0,18.0,30.26,East,90,2.0,3.0,28,-99.99,,,-99.99,348.670013,,2013-01-09 16:53:00,
2013-01-09 10:02:00,49.0,18.0,30.26,East,90,2.0,3.0,28,-99.99,,,-99.99,348.670013,,2013-01-09 17:02:00,
2013-01-09 10:12:00,52.0,19.0,30.27,North,7,1.0,3.0,27,-99.99,,,-99.99,428.859985,,2013-01-09 17:12:00,
2013-01-09 10:23:00,52.0,19.0,30.27,North,7,1.0,3.0,27,-99.99,,,-99.99,428.859985,,2013-01-09 17:23:00,
2013-01-09 10:33:00,50.0,21.0,30.28,NNE,24,8.0,15.0,30,-99.99,,,-99.99,465.119995,,2013-01-09 17:33:00,
2013-01-09 10:43:00,50.0,22.0,30.27,NNE,20,10.0,17.0,33,-99.99,,,-99.99,506.260010,,2013-01-09 17:43:00,
2013-01-09 10:53:00,50.0,22.0,30.27,NNE,20,10.0,17.0,33,-99.99,,,-99.99,506.260010,,2013-01-09 17:53:00,
2013-01-09 11:03:00,50.0,22.0,30.27,NNE,20,10.0,17.0,33,-99.99,,,-99.99,506.260010,,2013-01-09 18:03:00,
2013-01-09 11:12:00,51.0,22.0,30.25,NNE,33,12.0,20.0,31,-99.99,,,-99.99,526.489990,,2013-01-09 18:12:00,
2013-01-09 11:24:00,51.0,22.0,30.25,NNE,33,12.0,20.0,31,-99.99,,,-99.99,526.489990,,2013-01-09 18:24:00,
2013-01-09 11:33:00,52.0,20.0,30.24,NE,35,11.0,17.0,29,-99.99,,,-99.99,576.000000,,2013-01-09 18:33:00,
2013-01-09 11:43:00,52.0,20.0,30.23,NE,41,12.0,20.0,27,-99.99,,,-99.99,608.770020,,2013-01-09 18:43:00,
2013-01-09 11:53:00,52.0,20.0,30.23,NE,41,12.0,20.0,27,-99.99,,,-99.99,608.770020,,2013-01-09 18:53:00,
2013-01-09 12:03:00,53.0,17.0,30.23,NE,39,13.0,19.0,23,-99.99,,,-99.99,601.099976,,2013-01-09 19:03:00,
2013-01-09 12:12:00,54.0,16.0,30.22,NE,37,12.0,19.0,21,-99.99,,,-99.99,617.140015,,2013-01-09 19:12:00,
2013-01-09 12:22:00,54.0,16.0,30.22,NE,37,12.0,19.0,21,-99.99,,,-99.99,617.140015,,2013-01-09 19:22:00,
2013-01-09 12:33:00,54.0,16.0,30.22,NE,37,12.0,19.0,21,-99.99,,,-99.99,617.140015,,2013-01-09 19:33:00,
2013-01-09 12:43:00,54.0,16.0,30.22,NE,37,12.0,19.0,21,-99.99,,,-99.99,617.140015,,2013-01-09 19:43:00,
2013-01-09 13:03:00,54.0,17.0,30.18,NNE,29,15.0,23.0,22,-99.99,,,-99.99,620.630005,,2013-01-09 20:03:00,
2013-01-09 13:12:00,55.0,18.0,30.17,NNE,32,14.0,21.0,23,-99.99,,,-99.99,612.960022,,2013-01-09 20:12:00,
2013-01-09 13:23:00,55.0,18.0,30.17,NNE,32,14.0,21.0,23,-99.99,,,-99.99,612.960022,,2013-01-09 20:23:00,
2013-01-09 13:33:00,55.0,19.0,30.17,NNE,31,15.0,22.0,23,-99.99,,,-99.99,617.840027,,2013-01-09 20:33:00,
2013-01-09 13:42:00,55.0,19.0,30.16,NNE,30,14.0,21.0,23,-99.99,,,-99.99,599.710022,,2013-01-09 20:42:00,
2013-01-09 13:53:00,55.0,19.0,30.16,NNE,30,14.0,21.0,23,-99.99,,,-99.99,599.710022,,2013-01-09 20:53:00,
2013-01-09 14:03:00,55.0,19.0,30.15,NNE,27,15.0,21.0,24,-99.99,,,-99.99,578.090027,,2013-01-09 21:03:00,
2013-01-09 14:13:00,56.0,21.0,30.15,NNE,26,15.0,20.0,25,-99.99,,,-99.99,552.289978,,2013-01-09 21:13:00,
2013-01-09 14:23:00,56.0,21.0,30.15,NNE,26,15.0,20.0,25,-99.99,,,-99.99,552.289978,,2013-01-09 21:23:00,
2013-01-09 14:33:00,56.0,22.0,30.14,NNE,31,15.0,23.0,26,-99.99,,,-99.99,522.299988,,2013-01-09 21:33:00,
2013-01-09 14:43:00,56.0,23.0,30.15,NNE,26,13.0,23.0,27,-99.99,,,-99.99,497.899994,,2013-01-09 21:43:00,
2013-01-09 14:53:00,56.0,23.0,30.15,NNE,26,13.0,23.0,27,-99.99,,,-99.99,497.899994,,2013-01-09 21:53:00,
2013-01-09 15:03:00,56.0,23.0,30.15,NNE,26,13.0,23.0,27,-99.99,,,-99.99,497.899994,,2013-01-09 22:03:00,
2013-01-09 15:12:00,56.0,25.0,30.14,NNE,13,9.0,15.0,29,-99.99,,,-99.99,431.649994,,2013-01-09 22:12:00,
2013-01-09 15:23:00,56.0,25.0,30.14,NNE,13,9.0,15.0,29,-99.99,,,-99.99,431.649994,,2013-01-09 22:23:00,
2013-01-09 15:33:00,56.0,25.0,30.14,North,9,10.0,17.0,29,-99.99,,,-99.99,394.690002,,2013-01-09 22:33:00,
2013-01-09 15:43:00,56.0,25.0,30.13,NNE,28,10.0,16.0,29,-99.99,,,-99.99,354.250000,,2013-01-09 22:43:00,
2013-01-09 15:52:00,56.0,25.0,30.13,NNE,28,10.0,16.0,29,-99.99,,,-99.99,354.250000,,2013-01-09 22:52:00,
2013-01-09 16:02:00,56.0,25.0,30.13,NNE,25,10.0,16.0,29,-99.99,,,-99.99,313.100006,,2013-01-09 23:02:00,
2013-01-09 16:13:00,56.0,25.0,30.13,NNE,15,10.0,17.0,29,-99.99,,,-99.99,269.170013,,2013-01-09 23:13:00,
2013-01-09 16:22:00,56.0,25.0,30.13,NNE,15,10.0,17.0,29,-99.99,,,-99.99,269.170013,,2013-01-09 23:22:00,
2013-01-09 16:33:00,57.0,25.0,30.12,North,2,8.0,15.0,29,-99.99,,,-99.99,224.539993,,2013-01-09 23:33:00,
2013-01-09 16:43:00,56.0,24.0,30.11,North,3,8.0,13.0,28,-99.99,,,-99.99,142.949997,,2013-01-09 23:43:00,
2013-01-09 16:53:00,56.0,24.0,30.11,North,3,8.0,13.0,28,-99.99,,,-99.99,142.949997,,2013-01-09 23:53:00,
2013-01-09 17:03:00,55.0,23.0,30.11,North,8,10.0,17.0,28,-99.99,,,-99.99,20.920000,,2013-01-10 00:03:00,
2013-01-09 17:12:00,54.0,23.0,30.11,North,11,9.0,17.0,29,-99.99,,,-99.99,17.430000,,2013-01-10 00:12:00,
2013-01-09 17:22:00,54.0,23.0,30.11,North,11,9.0,17.0,29,-99.99,,,-99.99,17.430000,,2013-01-10 00:22:00,
2013-01-09 17:32:00,54.0,23.0,30.11,North,7,6.0,11.0,29,-99.99,,,-99.99,13.250000,,2013-01-10 00:32:00,
2013-01-09 17:42:00,53.0,23.0,30.11,NW,325,6.0,14.0,30,-99.99,,,-99.99,9.070000,,2013-01-10 00:42:00,
2013-01-09 17:53:00,53.0,23.0,30.11,NW,325,6.0,14.0,30,-99.99,,,-99.99,9.070000,,2013-01-10 00:53:00,
2013-01-09 18:02:00,52.0,23.0,30.11,WNW,291,5.0,9.0,32,-99.99,,,-99.99,2.790000,,2013-01-10 01:02:00,
2013-01-09 18:12:00,48.0,25.0,30.11,WNW,295,8.0,11.0,40,-99.99,,,-99.99,0.000000,,2013-01-10 01:12:00,
2013-01-09 18:22:00,48.0,25.0,30.11,WNW,295,8.0,11.0,40,-99.99,,,-99.99,0.000000,,2013-01-10 01:22:00,
2013-01-09 18:33:00,48.0,24.0,30.11,WNW,285,9.0,12.0,38,-99.99,,,-99.99,0.000000,,2013-01-10 01:33:00,
2013-01-09 18:43:00,49.0,22.0,30.11,WNW,282,8.0,14.0,33,-99.99,,,-99.99,0.000000,,2013-01-10 01:43:00,
2013-01-09 18:53:00,49.0,22.0,30.11,WNW,282,8.0,14.0,33,-99.99,,,-99.99,0.000000,,2013-01-10 01:53:00,
2013-01-09 19:03:00,48.0,22.0,30.11,WNW,296,7.0,11.0,36,-99.99,,,-99.99,0.000000,,2013-01-10 02:03:00,
2013-01-09 19:12:00,47.0,22.0,30.11,WNW,289,8.0,12.0,37,-99.99,,,-99.99,0.000000,,2013-01-10 02:12:00,
2013-01-09 19:22:00,47.0,22.0,30.11,WNW,289,8.0,12.0,37,-99.99,,,-99.99,0.000000,,2013-01-10 02:22:00,
2013-01-09 19:32:00,48.0,21.0,30.11,WNW,292,7.0,9.0,34,-99.99,,,-99.99,0.000000,,2013-01-10 02:32:00,
2013-01-09 19:42:00,48.0,21.0,30.11,WNW,292,7.0,9.0,34,-99.99,,,-99.99,0.000000,,2013-01-10 02:42:00,
2013-01-09 19:52:00,48.0,21.0,30.11,WNW,292,7.0,9.0,34,-99.99,,,-99.99,0.000000,,2013-01-10 02:52:00,
2013-01-09 20:02:00,47.0,20.0,30.11,WNW,293,5.0,10.0,33,-99.99,,,-99.99,0.000000,,2013-01-10 03:02:00,
2013-01-09 20:12:00,47.0,20.0,30.11,WNW,282,5.0,9.0,34,-99.99,,,-99.99,0.000000,,2013-01-10 03:12:00,
2013-01-09 20:22:00,47.0,20.0,30.11,WNW,282,5.0,9.0,34,-99.99,,,-99.99,0.000000,,2013-01-10 03:22:00,
2013-01-09 20:33:00,47.0,20.0,30.11,NW,325,4.0,7.0,34,-99.99,,,-99.99,0.000000,,2013-01-10 03:33:00,
2013-01-09 20:42:00,45.0,21.0,30.11,WNW,302,5.0,9.0,37,-99.99,,,-99.99,0.000000,,2013-01-10 03:42:00,
2013-01-09 20:53:00,45.0,21.0,30.11,WNW,302,5.0,9.0,37,-99.99,,,-99.99,0.000000,,2013-01-10 03:53:00,
2013-01-09 21:02:00,46.0,20.0,30.12,WNW,283,6.0,12.0,34,-99.99,,,-99.99,0.000000,,2013-01-10 04:02:00,
2013-01-09 21:12:00,48.0,18.0,30.12,WNW,296,6.0,10.0,29,-99.99,,,-99.99,0.000000,,2013-01-10 04:12:00,
2013-01-09 21:22:00,48.0,18.0,30.12,WNW,296,6.0,10.0,29,-99.99,,,-99.99,0.000000,,2013-01-10 04:22:00,
2013-01-09 21:32:00,48.0,18.0,30.11,WNW,301,6.0,11.0,29,-99.99,,,-99.99,0.000000,,2013-01-10 04:32:00,
2013-01-09 21:42:00,48.0,18.0,30.11,WNW,283,7.0,11.0,29,-99.99,,,-99.99,0.000000,,2013-01-10 04:42:00,
2013-01-09 21:52:00,48.0,18.0,30.11,WNW,283,7.0,11.0,29,-99.99,,,-99.99,0.000000,,2013-01-10 04:52:00,
2013-01-09 22:03:00,48.0,18.0,30.11,WNW,286,9.0,13.0,30,-99.99,,,-99.99,0.000000,,2013-01-10 05:03:00,
2013-01-09 22:12:00,48.0,18.0,30.11,West,277,7.0,13.0,29,-99.99,,,-99.99,0.000000,,2013-01-10 05:12:00,
2013-01-09 22:22:00,48.0,18.0,30.11,West,277,7.0,13.0,29,-99.99,,,-99.99,0.000000,,2013-01-10 05:22:00,
2013-01-09 22:33:00,48.0,17.0,30.10,West,280,7.0,12.0,28,-99.99,,,-99.99,0.000000,,2013-01-10 05:33:00,
2013-01-09 22:42:00,48.0,17.0,30.10,WNW,291,7.0,11.0,29,-99.99,,,-99.99,0.000000,,2013-01-10 05:42:00,
2013-01-09 22:53:00,48.0,17.0,30.10,WNW,291,7.0,11.0,29,-99.99,,,-99.99,0.000000,,2013-01-10 05:53:00,
2013-01-09 23:02:00,45.0,18.0,30.09,WNW,289,6.0,8.0,33,-99.99,,,-99.99,0.000000,,2013-01-10 06:02:00,
2013-01-09 23:12:00,43.0,19.0,30.09,WNW,299,11.0,14.0,36,-99.99,,,-99.99,0.000000,,2013-01-10 06:12:00,
2013-01-09 23:22:00,43.0,19.0,30.09,WNW,299,11.0,14.0,36,-99.99,,,-99.99,0.000000,,2013-01-10 06:22:00,
2013-01-09 23:32:00,44.0,18.0,30.09,WNW,297,10.0,14.0,33,-99.99,,,-99.99,0.000000,,2013-01-10 06:32:00,
2013-01-09 23:42:00,47.0,16.0,30.09,West,277,10.0,14.0,29,-99.99,,,-99.99,0.000000,,2013-01-10 06:42:00,
2013-01-09 23:52:00,47.0,16.0,30.09,West,277,10.0,14.0,29,-99.99,,,-99.99,0.000000,,2013-01-10 06:52:00,